createdAt,value
2024-02-23T00:02:26.827Z,0.88
2024-02-23T00:04:56.541Z,0.70
2024-02-23T00:07:24.349Z,0.82
2024-02-23T00:09:52.213Z,1.00
2024-02-23T00:12:20.175Z,0.70
2024-02-23T00:14:48.202Z,0.63
2024-02-23T00:17:16.638Z,0.77
2024-02-23T00:19:47.319Z,0.90
2024-02-23T00:22:17.220Z,0.77
2024-02-23T00:24:45.181Z,0.68
2024-02-23T00:27:13.121Z,0.82
2024-02-23T00:29:41.813Z,0.70
2024-02-23T00:32:09.949Z,0.80
2024-02-23T00:34:38.410Z,0.77
2024-02-23T00:37:06.887Z,0.85
2024-02-23T00:39:37.599Z,0.80
2024-02-23T00:42:05.716Z,0.70
2024-02-23T00:44:33.670Z,0.68
2024-02-23T00:47:02.871Z,0.50
2024-02-23T00:49:30.880Z,0.65
2024-02-23T00:51:58.772Z,0.70
2024-02-23T00:54:27.014Z,0.60
2024-02-23T00:56:57.713Z,0.70
2024-02-23T00:59:25.858Z,0.60
2024-02-23T01:01:53.741Z,0.70
2024-02-23T01:04:21.754Z,0.90
2024-02-23T01:06:49.972Z,0.60
2024-02-23T01:09:21.501Z,0.60
2024-02-23T01:11:49.816Z,0.57
2024-02-23T01:14:19.779Z,0.50
2024-02-23T01:16:47.680Z,0.60
2024-02-23T01:19:16.985Z,0.50
2024-02-23T01:21:44.854Z,0.30
2024-02-23T01:24:12.626Z,0.32
2024-02-23T01:26:43.264Z,0.50
2024-02-23T01:29:11.562Z,0.43
2024-02-23T01:31:40.712Z,0.60
2024-02-23T01:34:08.649Z,0.50
2024-02-23T01:36:37.564Z,0.80
2024-02-23T01:39:06.024Z,0.90
2024-02-23T01:41:34.279Z,0.73
2024-02-23T01:44:02.113Z,0.82
2024-02-23T01:46:30.981Z,0.70
2024-02-23T01:49:00.344Z,0.77
2024-02-23T01:51:28.977Z,0.80
2024-02-23T01:53:57.256Z,0.90
2024-02-23T01:56:25.170Z,0.88
2024-02-23T01:58:55.020Z,0.95
2024-02-23T02:01:22.916Z,0.90
2024-02-23T02:03:50.808Z,0.90
2024-02-23T02:06:20.265Z,0.80
2024-02-23T02:08:48.831Z,0.90
2024-02-23T02:11:17.671Z,0.90
2024-02-23T02:13:45.748Z,1.10
2024-02-23T02:16:13.860Z,1.00
2024-02-23T02:18:41.644Z,0.80
2024-02-23T02:21:10.013Z,0.90
2024-02-23T02:23:39.510Z,0.80
2024-02-23T02:26:07.500Z,1.02
2024-02-23T02:28:35.953Z,1.00
2024-02-23T02:31:04.217Z,1.13
2024-02-23T02:33:32.165Z,1.20
2024-02-23T02:36:00.144Z,1.50
2024-02-23T02:38:28.544Z,1.80
2024-02-23T02:40:58.640Z,1.65
2024-02-23T02:43:27.126Z,2.20
2024-02-23T02:45:54.981Z,2.38
2024-02-23T02:48:22.983Z,2.20
2024-02-23T02:50:54.273Z,2.20
2024-02-23T02:53:22.470Z,2.30
2024-02-23T02:55:50.405Z,2.05
2024-02-23T02:58:20.050Z,2.00
2024-02-23T03:00:47.955Z,2.30
2024-02-23T03:03:15.786Z,1.95
2024-02-23T03:05:43.870Z,1.95
2024-02-23T03:08:12.012Z,1.70
2024-02-23T03:10:40.029Z,1.70
2024-02-23T03:13:07.854Z,1.73
2024-02-23T03:15:37.178Z,1.55
2024-02-23T03:18:05.992Z,1.70
2024-02-23T03:20:34.253Z,1.77
2024-02-23T03:23:02.358Z,1.60
2024-02-23T03:25:30.200Z,1.50
2024-02-23T03:27:58.824Z,1.70
2024-02-23T03:30:26.905Z,1.65
2024-02-23T03:32:56.625Z,1.73
2024-02-23T03:35:24.501Z,1.52
2024-02-23T03:37:52.365Z,1.88
2024-02-23T03:40:20.341Z,1.33
2024-02-23T03:42:48.134Z,1.60
2024-02-23T03:45:16.317Z,1.50
2024-02-23T03:47:44.635Z,1.38
2024-02-23T03:50:14.279Z,1.30
2024-02-23T03:52:42.389Z,1.25
2024-02-23T03:55:10.751Z,1.35
2024-02-23T03:57:38.796Z,1.20
2024-02-23T04:00:09.020Z,1.00
2024-02-23T04:02:41.799Z,1.20
2024-02-23T04:05:10.171Z,1.00
2024-02-23T04:07:39.402Z,1.08
2024-02-23T04:10:08.908Z,1.35
2024-02-23T04:12:36.829Z,0.98
2024-02-23T04:15:05.706Z,1.10
2024-02-23T04:17:33.676Z,1.25
2024-02-23T04:20:07.783Z,1.30
2024-02-23T04:22:35.757Z,1.20
2024-02-23T04:25:06.059Z,1.10
2024-02-23T04:27:33.945Z,1.20
2024-02-23T04:30:01.741Z,1.02
2024-02-23T04:32:30.207Z,1.08
2024-02-23T04:34:58.487Z,0.80
2024-02-23T04:37:26.455Z,0.90
2024-02-23T04:39:54.407Z,1.10
2024-02-23T04:42:23.570Z,1.17
2024-02-23T04:44:53.864Z,0.90
2024-02-23T04:47:22.325Z,1.02
2024-02-23T04:49:50.768Z,0.93
2024-02-23T04:52:18.611Z,1.00
2024-02-23T04:54:46.441Z,1.20
2024-02-23T04:57:14.429Z,1.00
2024-02-23T04:59:43.949Z,0.90
2024-02-23T05:02:11.812Z,1.25
2024-02-23T05:04:39.958Z,0.88
2024-02-23T05:07:07.787Z,1.00
2024-02-23T05:09:36.169Z,0.80
2024-02-23T05:12:04.332Z,1.10
2024-02-23T05:14:32.727Z,1.00
2024-02-23T05:17:02.185Z,1.00
2024-02-23T05:19:30.351Z,1.13
2024-02-23T05:21:58.299Z,1.58
2024-02-23T05:24:26.668Z,1.17
2024-02-23T05:26:54.558Z,1.35
2024-02-23T05:29:23.606Z,1.30
2024-02-23T05:31:55.105Z,1.45
2024-02-23T05:34:24.416Z,1.35
2024-02-23T05:36:52.901Z,1.40
2024-02-23T05:39:20.761Z,2.00
2024-02-23T05:41:49.225Z,2.00
2024-02-23T05:44:17.033Z,1.95
2024-02-23T05:46:45.057Z,2.00
2024-02-23T05:49:13.667Z,2.35
2024-02-23T05:51:43.160Z,2.42
2024-02-23T05:54:10.980Z,2.00
2024-02-23T05:56:39.500Z,1.50
2024-02-23T05:59:07.652Z,1.80
2024-02-23T06:01:35.657Z,1.90
2024-02-23T06:04:03.567Z,2.10
2024-02-23T06:06:32.564Z,1.80
2024-02-23T06:09:03.508Z,1.95
2024-02-23T06:11:31.586Z,1.80
2024-02-23T06:14:00.295Z,1.58
2024-02-23T06:16:31.592Z,1.77
2024-02-23T06:18:59.536Z,1.52
2024-02-23T06:21:27.654Z,1.80
2024-02-23T06:23:55.595Z,1.60
2024-02-23T06:26:25.200Z,1.63
2024-02-23T06:28:53.036Z,1.85
2024-02-23T06:31:21.180Z,1.80
2024-02-23T06:33:50.797Z,1.33
2024-02-23T06:36:20.087Z,1.65
2024-02-23T06:38:48.745Z,1.50
2024-02-23T06:41:17.126Z,2.08
2024-02-23T06:43:46.360Z,1.40
2024-02-23T06:46:14.260Z,1.52
2024-02-23T06:48:42.195Z,1.45
2024-02-23T06:51:10.854Z,1.55
2024-02-23T06:53:39.353Z,1.55
2024-02-23T06:56:08.447Z,1.15
2024-02-23T06:58:36.487Z,0.90
2024-02-23T07:01:07.356Z,1.20
2024-02-23T07:03:36.473Z,1.50
2024-02-23T07:06:04.688Z,1.48
2024-02-23T07:08:32.771Z,1.13
2024-02-23T07:11:01.572Z,1.13
2024-02-23T07:13:29.904Z,0.90
2024-02-23T07:15:58.232Z,1.33
2024-02-23T07:18:27.669Z,0.90
2024-02-23T07:20:55.776Z,0.82
2024-02-23T07:23:23.984Z,1.10
2024-02-23T07:25:52.570Z,0.77
2024-02-23T07:28:21.169Z,1.00
2024-02-23T07:30:49.893Z,0.80
2024-02-23T07:33:17.880Z,0.95
2024-02-23T07:35:47.251Z,1.05
2024-02-23T07:38:15.208Z,0.70
2024-02-23T07:40:43.194Z,1.00
2024-02-23T07:43:12.253Z,1.10
2024-02-23T07:45:40.108Z,0.93
2024-02-23T07:48:09.936Z,1.20
2024-02-23T07:50:37.948Z,0.90
2024-02-23T07:53:07.390Z,0.90
2024-02-23T07:55:35.528Z,1.15
2024-02-23T07:58:03.613Z,0.82
2024-02-23T08:00:31.462Z,0.90
2024-02-23T08:03:00.675Z,0.98
2024-02-23T08:05:28.804Z,0.93
2024-02-23T08:07:56.880Z,1.10
2024-02-23T08:10:27.635Z,0.93
2024-02-23T08:12:55.888Z,1.10
2024-02-23T08:15:23.708Z,0.80
2024-02-23T08:17:52.313Z,0.82
2024-02-23T08:20:20.683Z,1.00
2024-02-23T08:22:49.123Z,1.23
2024-02-23T08:25:17.624Z,0.80
2024-02-23T08:27:47.449Z,0.70
2024-02-23T08:30:16.468Z,0.90
2024-02-23T08:32:44.378Z,0.90
2024-02-23T08:35:12.439Z,1.10
2024-02-23T08:37:40.393Z,0.82
2024-02-23T08:40:10.544Z,1.17
2024-02-23T08:42:38.380Z,0.90
2024-02-23T08:45:08.741Z,1.02
2024-02-23T08:47:37.309Z,0.80
2024-02-23T08:50:05.855Z,0.93
2024-02-23T08:52:33.714Z,1.17
2024-02-23T08:55:02.409Z,1.20
2024-02-23T08:57:30.484Z,1.02
2024-02-23T08:59:59.135Z,0.98
2024-02-23T09:02:29.038Z,1.17
2024-02-23T09:04:57.049Z,1.08
2024-02-23T09:07:25.218Z,1.00
2024-02-23T09:09:53.596Z,1.10
2024-02-23T09:12:21.561Z,0.80
2024-02-23T09:14:49.875Z,0.82
2024-02-23T09:17:19.765Z,0.82
2024-02-23T09:19:50.555Z,1.13
2024-02-23T09:22:18.367Z,1.05
2024-02-23T09:24:46.181Z,0.80
2024-02-23T09:27:14.029Z,0.80
2024-02-23T09:29:42.810Z,1.05
2024-02-23T09:32:10.970Z,1.13
2024-02-23T09:34:38.806Z,1.20
2024-02-23T09:37:08.200Z,0.80
2024-02-23T09:39:36.039Z,1.15
2024-02-23T09:42:03.986Z,1.00
2024-02-23T09:44:35.568Z,0.98
2024-02-23T09:47:09.272Z,0.80
2024-02-23T09:49:41.277Z,1.00
2024-02-23T09:52:12.184Z,0.65
2024-02-23T09:54:40.940Z,0.80
2024-02-23T09:57:09.958Z,1.02
2024-02-23T09:59:38.204Z,0.82
2024-02-23T10:02:11.057Z,0.55
2024-02-23T10:04:40.271Z,1.02
2024-02-23T10:07:08.620Z,1.00
2024-02-23T10:09:38.029Z,1.50
2024-02-23T10:12:06.591Z,1.00
2024-02-23T10:14:34.945Z,1.00
2024-02-23T10:17:03.439Z,0.90
2024-02-23T10:19:31.442Z,0.90
2024-02-23T10:21:59.519Z,1.05
2024-02-23T10:24:27.631Z,0.95
2024-02-23T10:26:57.232Z,0.85
2024-02-23T10:29:25.599Z,0.93
2024-02-23T10:31:54.833Z,1.00
2024-02-23T10:34:23.117Z,1.00
2024-02-23T10:36:51.800Z,0.90
2024-02-23T10:39:20.970Z,1.02
2024-02-23T10:41:54.745Z,0.82
2024-02-23T10:44:24.258Z,0.82
2024-02-23T10:46:53.211Z,0.82
2024-02-23T10:49:23.941Z,1.10
2024-02-23T10:51:53.306Z,1.10
2024-02-23T10:54:22.800Z,0.93
2024-02-23T10:56:52.790Z,1.30
2024-02-23T10:59:23.851Z,1.05
2024-02-23T11:01:55.117Z,1.27
2024-02-23T11:04:24.770Z,1.30
2024-02-23T11:06:53.206Z,0.80
2024-02-23T11:09:23.906Z,0.88
2024-02-23T11:11:56.662Z,0.98
2024-02-23T11:14:34.591Z,0.90
2024-02-23T11:17:04.877Z,1.33
2024-02-23T11:19:37.265Z,0.90
2024-02-23T11:22:07.704Z,1.15
2024-02-23T11:24:36.841Z,0.85
2024-02-23T11:27:09.455Z,0.90
2024-02-23T11:29:40.679Z,0.88
2024-02-23T11:32:17.395Z,0.80
2024-02-23T11:34:57.840Z,1.02
2024-02-23T11:37:25.936Z,1.00
2024-02-23T11:39:54.324Z,1.10
2024-02-23T11:42:23.009Z,1.00
2024-02-23T11:44:52.118Z,1.00
2024-02-23T11:47:21.585Z,1.23
2024-02-23T11:49:49.480Z,1.20
2024-02-23T11:52:18.165Z,1.50
2024-02-23T11:54:46.800Z,1.33
2024-02-23T11:57:15.697Z,1.40
2024-02-23T11:59:43.960Z,1.33
2024-02-23T12:02:11.898Z,1.10
2024-02-23T12:04:41.155Z,1.20
2024-02-23T12:07:09.059Z,1.48
2024-02-23T12:09:37.036Z,1.48
2024-02-23T12:12:05.853Z,1.00
2024-02-23T12:14:33.770Z,0.80
2024-02-23T12:17:01.689Z,1.05
2024-02-23T12:19:29.948Z,0.80
2024-02-23T12:22:02.142Z,0.90
2024-02-23T12:24:31.644Z,0.80
2024-02-23T12:26:59.771Z,0.80
2024-02-23T12:29:28.177Z,0.80
2024-02-23T12:32:05.326Z,0.88
2024-02-23T12:34:33.387Z,0.60
2024-02-23T12:37:04.532Z,0.88
2024-02-23T12:39:33.197Z,0.80
2024-02-23T12:42:01.109Z,2.00
2024-02-23T12:44:29.203Z,0.82
2024-02-23T12:46:57.090Z,0.73
2024-02-23T12:49:25.674Z,0.70
2024-02-23T12:51:53.723Z,0.85
2024-02-23T12:54:23.152Z,0.68
2024-02-23T12:56:50.959Z,1.13
2024-02-23T12:59:19.311Z,1.00
2024-02-23T13:01:50.245Z,1.00
2024-02-23T13:04:20.291Z,0.88
2024-02-23T13:06:48.565Z,0.80
2024-02-23T13:09:16.666Z,0.93
2024-02-23T13:11:47.258Z,1.17
2024-02-23T13:14:17.388Z,0.65
2024-02-23T13:16:45.539Z,0.80
2024-02-23T13:19:13.476Z,0.82
2024-02-23T13:21:41.522Z,1.20
2024-02-23T13:24:09.447Z,0.50
2024-02-23T13:26:37.473Z,0.70
2024-02-23T13:29:06.949Z,0.70
2024-02-23T13:31:34.988Z,0.90
2024-02-23T13:34:03.130Z,0.80
2024-02-23T13:36:31.212Z,0.80
2024-02-23T13:39:01.032Z,0.70
2024-02-23T13:41:29.490Z,0.80
2024-02-23T13:43:57.476Z,0.70
2024-02-23T13:46:27.560Z,0.85
2024-02-23T13:49:05.826Z,0.73
2024-02-23T13:51:34.260Z,0.70
2024-02-23T13:54:02.475Z,0.88
2024-02-23T13:56:30.448Z,1.70
2024-02-23T13:58:58.349Z,1.00
2024-02-23T14:01:27.669Z,0.90
2024-02-23T14:03:55.780Z,0.80
2024-02-23T14:06:23.877Z,0.80
2024-02-23T14:08:51.864Z,1.00
2024-02-23T14:11:20.523Z,0.88
2024-02-23T14:13:51.787Z,0.80
2024-02-23T14:16:20.208Z,0.90
2024-02-23T14:18:49.410Z,1.10
2024-02-23T14:21:19.115Z,0.90
2024-02-23T14:23:47.089Z,0.85
2024-02-23T14:26:14.943Z,1.08
2024-02-23T14:28:42.878Z,1.00
2024-02-23T14:31:10.922Z,0.73
2024-02-23T14:33:39.300Z,0.90
2024-02-23T14:36:09.000Z,0.90
2024-02-23T14:38:36.999Z,1.15
2024-02-23T14:41:06.296Z,1.05
2024-02-23T14:43:34.186Z,0.98
2024-02-23T14:46:02.076Z,0.90
2024-02-23T14:48:30.376Z,0.93
2024-02-23T14:50:58.976Z,0.80
2024-02-23T14:53:29.392Z,0.70
2024-02-23T14:55:58.035Z,0.88
2024-02-23T14:58:25.954Z,0.80
2024-02-23T15:00:53.836Z,0.88
2024-02-23T15:03:21.834Z,0.90
2024-02-23T15:05:49.751Z,0.68
2024-02-23T15:08:18.220Z,0.90
2024-02-23T15:10:47.534Z,0.88
2024-02-23T15:13:16.689Z,0.90
2024-02-23T15:15:44.683Z,0.90
2024-02-23T15:18:12.885Z,0.82
2024-02-23T15:20:40.910Z,0.70
2024-02-23T15:23:09.328Z,0.70
2024-02-23T15:25:40.912Z,0.90
2024-02-23T15:28:13.063Z,0.98
2024-02-23T15:30:40.893Z,1.10
2024-02-23T15:33:09.524Z,1.20
2024-02-23T15:35:37.735Z,1.08
2024-02-23T15:38:06.684Z,1.02
2024-02-23T15:40:34.786Z,1.10
2024-02-23T15:43:04.645Z,0.93
2024-02-23T15:45:34.078Z,1.05
2024-02-23T15:48:02.078Z,0.80
2024-02-23T15:50:50.089Z,0.85
2024-02-23T15:53:20.820Z,0.82
2024-02-23T15:55:48.903Z,1.00
2024-02-23T15:58:18.653Z,1.05
2024-02-23T16:00:49.466Z,0.80
2024-02-23T16:03:17.844Z,0.93
2024-02-23T16:05:45.813Z,1.05
2024-02-23T16:08:15.963Z,0.85
2024-02-23T16:10:44.832Z,0.88
2024-02-23T16:13:13.061Z,1.25
2024-02-23T16:15:40.982Z,0.90
2024-02-23T16:18:10.253Z,0.82
2024-02-23T16:20:38.228Z,1.00
2024-02-23T16:23:06.307Z,0.95
2024-02-23T16:25:34.240Z,0.85
2024-02-23T16:28:02.034Z,0.85
2024-02-23T16:30:31.454Z,1.17
2024-02-23T16:32:59.906Z,0.73
2024-02-23T16:35:30.215Z,1.10
2024-02-23T16:37:58.227Z,1.35
2024-02-23T16:40:30.115Z,8.48
2024-02-23T16:42:58.628Z,3.38
2024-02-23T16:45:28.217Z,1.83
2024-02-23T16:47:57.046Z,1.30
2024-02-23T16:50:25.330Z,0.90
2024-02-23T16:52:54.928Z,1.00
2024-02-23T16:55:23.018Z,1.30
2024-02-23T16:57:51.325Z,1.60
2024-02-23T17:00:20.032Z,1.10
2024-02-23T17:02:48.152Z,0.80
2024-02-23T17:05:16.139Z,1.00
2024-02-23T17:07:44.327Z,1.20
2024-02-23T17:10:13.684Z,0.82
2024-02-23T17:12:46.089Z,0.90
2024-02-23T17:15:13.981Z,0.80
2024-02-23T17:17:41.913Z,0.73
2024-02-23T17:20:11.160Z,1.17
2024-02-23T17:22:39.507Z,1.20
2024-02-23T17:25:08.917Z,0.80
2024-02-23T17:27:39.459Z,1.00
2024-02-23T17:30:08.516Z,1.00
2024-02-23T17:32:36.461Z,1.10
2024-02-23T17:35:05.263Z,1.17
2024-02-23T17:37:33.200Z,1.20
2024-02-23T17:40:01.074Z,1.17
2024-02-23T17:42:28.934Z,1.10
2024-02-23T17:44:58.218Z,1.10
2024-02-23T17:47:26.427Z,1.30
2024-02-23T17:49:54.449Z,1.10
2024-02-23T17:52:22.330Z,0.98
2024-02-23T17:54:51.205Z,1.20
2024-02-23T17:57:20.788Z,1.17
2024-02-23T17:59:50.310Z,1.38
2024-02-23T18:02:19.796Z,1.30
2024-02-23T18:04:49.696Z,1.00
2024-02-23T18:07:17.727Z,1.45
2024-02-23T18:09:45.833Z,1.23
2024-02-23T18:12:13.874Z,1.35
2024-02-23T18:14:42.020Z,1.60
2024-02-23T18:17:10.091Z,1.60
2024-02-23T18:19:43.151Z,1.73
2024-02-23T18:22:12.119Z,1.63
2024-02-23T18:24:40.101Z,1.67
2024-02-23T18:27:08.790Z,1.95
2024-02-23T18:29:37.453Z,1.88
2024-02-23T18:32:06.801Z,2.38
2024-02-23T18:34:34.906Z,1.58
2024-02-23T18:37:09.725Z,1.50
2024-02-23T18:39:37.936Z,1.45
2024-02-23T18:42:06.412Z,1.30
2024-02-23T18:44:34.380Z,1.50
2024-02-23T18:47:02.325Z,1.40
2024-02-23T18:49:34.493Z,1.42
2024-02-23T18:52:04.906Z,1.30
2024-02-23T18:54:33.437Z,1.38
2024-02-23T18:57:03.682Z,1.58
2024-02-23T18:59:31.861Z,0.93
2024-02-23T19:02:01.238Z,1.35
2024-02-23T19:04:30.488Z,1.10
2024-02-23T19:06:58.420Z,1.10
2024-02-23T19:09:27.848Z,1.35
2024-02-23T19:11:55.859Z,1.55
2024-02-23T19:14:23.966Z,1.38
2024-02-23T19:16:52.188Z,1.80
2024-02-23T19:19:20.534Z,2.95
2024-02-23T19:21:48.511Z,2.80
2024-02-23T19:24:17.248Z,3.15
2024-02-23T19:26:47.381Z,2.72
2024-02-23T19:29:15.613Z,2.25
2024-02-23T19:31:43.726Z,1.80
2024-02-23T19:34:12.303Z,1.73
2024-02-23T19:36:40.813Z,1.70
2024-02-23T19:39:13.088Z,1.60
2024-02-23T19:41:44.650Z,1.30
2024-02-23T19:44:14.241Z,1.77
2024-02-23T19:46:42.753Z,1.88
2024-02-23T19:49:11.361Z,1.90
2024-02-23T19:51:40.068Z,1.60
2024-02-23T19:54:08.712Z,1.52
2024-02-23T19:56:36.661Z,1.77
2024-02-23T19:59:04.879Z,1.63
2024-02-23T20:01:34.185Z,1.60
2024-02-23T20:04:02.270Z,1.70
2024-02-23T20:06:30.196Z,1.70
2024-02-23T20:08:58.056Z,1.50
2024-02-23T20:11:26.001Z,1.10
2024-02-23T20:13:54.189Z,1.75
2024-02-23T20:16:22.388Z,1.40
2024-02-23T20:18:51.963Z,1.58
2024-02-23T20:21:20.001Z,1.40
2024-02-23T20:23:47.901Z,1.30
2024-02-23T20:26:16.031Z,1.23
2024-02-23T20:28:43.880Z,1.10
2024-02-23T20:31:11.748Z,1.20
2024-02-23T20:33:41.233Z,1.58
2024-02-23T20:36:11.394Z,1.48
2024-02-23T20:38:39.348Z,1.40
2024-02-23T20:41:07.346Z,1.40
2024-02-23T20:43:35.242Z,1.45
2024-02-23T20:46:03.128Z,1.85
2024-02-23T20:48:31.166Z,1.40
2024-02-23T20:51:00.004Z,1.40
2024-02-23T20:53:29.908Z,1.50
2024-02-23T20:55:58.882Z,1.40
2024-02-23T20:58:27.919Z,1.40
2024-02-23T21:00:58.043Z,1.25
2024-02-23T21:03:31.268Z,1.38
2024-02-23T21:05:59.568Z,1.42
2024-02-23T21:08:28.919Z,1.40
2024-02-23T21:10:57.065Z,1.27
2024-02-23T21:13:24.939Z,1.42
2024-02-23T21:15:51.832Z,1.20
2024-02-23T21:18:20.437Z,1.30
2024-02-23T21:20:49.102Z,1.33
2024-02-23T21:23:17.715Z,1.42
2024-02-23T21:25:47.064Z,1.45
2024-02-23T21:28:15.330Z,1.58
2024-02-23T21:30:49.059Z,1.50
2024-02-23T21:33:18.052Z,1.65
2024-02-23T21:35:46.433Z,1.60
2024-02-23T21:38:14.851Z,1.50
2024-02-23T21:40:42.741Z,1.50
2024-02-23T21:43:12.243Z,1.52
2024-02-23T21:45:40.263Z,1.50
2024-02-23T21:48:08.532Z,1.63
2024-02-23T21:50:36.409Z,1.58
2024-02-23T21:53:04.572Z,1.65
2024-02-23T21:55:32.479Z,1.27
2024-02-23T21:58:00.317Z,1.73
2024-02-23T22:00:29.519Z,1.40
2024-02-23T22:03:04.065Z,1.50
2024-02-23T22:05:32.080Z,1.50
2024-02-23T22:08:00.079Z,1.27
2024-02-23T22:10:27.895Z,1.65
2024-02-23T22:12:55.947Z,1.60
2024-02-23T22:15:23.795Z,1.30
2024-02-23T22:17:53.167Z,1.42
2024-02-23T22:20:21.638Z,1.50
2024-02-23T22:22:49.574Z,1.30
2024-02-23T22:25:17.731Z,1.40
2024-02-23T22:27:45.535Z,1.55
2024-02-23T22:30:13.776Z,1.80
2024-02-23T22:32:42.511Z,1.60
2024-02-23T22:35:14.856Z,1.75
2024-02-23T22:37:43.047Z,1.50
2024-02-23T22:40:14.660Z,1.73
2024-02-23T22:42:42.956Z,1.70
2024-02-23T22:45:12.994Z,1.50
2024-02-23T22:47:41.592Z,2.10
2024-02-23T22:50:12.278Z,1.63
2024-02-23T22:52:40.164Z,1.33
2024-02-23T22:55:08.777Z,1.83
2024-02-23T22:57:36.642Z,1.58
2024-02-23T23:00:04.960Z,1.48
2024-02-23T23:02:33.724Z,1.80
2024-02-23T23:05:01.950Z,1.55
2024-02-23T23:07:33.170Z,1.70
2024-02-23T23:10:02.047Z,1.73
2024-02-23T23:12:30.008Z,1.40
2024-02-23T23:14:57.922Z,1.88
2024-02-23T23:17:25.869Z,1.83
2024-02-23T23:19:54.052Z,1.70
2024-02-23T23:22:22.549Z,1.70
2024-02-23T23:24:51.795Z,1.75
2024-02-23T23:27:19.790Z,1.65
2024-02-23T23:29:47.716Z,1.55
2024-02-23T23:32:15.586Z,1.40
2024-02-23T23:34:44.015Z,1.77
2024-02-23T23:37:12.098Z,1.75
2024-02-23T23:39:40.556Z,1.52
2024-02-23T23:42:09.858Z,1.80
2024-02-23T23:44:38.093Z,1.80
2024-02-23T23:47:06.294Z,1.83
2024-02-23T23:49:34.177Z,2.20
2024-02-23T23:52:04.904Z,1.48
2024-02-23T23:54:33.701Z,1.85
2024-02-23T23:57:01.690Z,1.80
2024-02-23T23:59:31.017Z,1.70
